PFWS

Details ICAO PFWS (WSN)
Name South Naknek Nr 2
Region USA (Alaska)
Timezone America/Anchorage (UTC-9.0)
Plans Departing 0
Arriving 0
Stats Elevation 130 ft / 40 m (AMSL)
Location 58.703436° -157.008251°
Runways 1
Magnetic Variation 13.333° E
Sunrise 2017-12-11 19:11:01 UTC / 2017-12-11 10:11:01 Local
Sunset 2017-12-12 01:34:52 UTC / 2017-12-11 16:34:52 Local
Advertisement - Login to hide

Runways

ID Width Length Bearing (true) Bearing (mag) Surface Threshold Offset Overrun Length
12 50 ft / 15 m 2,202 ft / 671 m 141.00° 127.67° Gravel 0 ft / 0 m 0 ft / 0 m
30 50 ft / 15 m 2,202 ft / 671 m 321.00° 307.67° Gravel 0 ft / 0 m 0 ft / 0 m

Map

Weather


0- 5 10 15 20 25 30 35+ Temperature / ° C

Clouds and Precipitation
Forecast for 2017-12-12 00:00 UTC. Updated an hour ago

Ground ~20,000 ft ~40,000 ft Winds

METAR

PFWS 112356Z AUTO 11010KT 10SM FEW110 03/01 A2934 RMK AO2 SLP942 T00280006 10033 20006 51022

TAF

Not found
Warning: Do not use this data for real-world aviation or navigation. No guarantee of current accuracy is given.